This is the latest recevied weather packets stored in our database for station/object KF0TNT. If no packets are shown the sender has not sent any weather packets the latest 10 day(s).
| Time | Temp. | Humidity | Pressure | Rain* | Wind** | Luminosity | Snow |
|---|---|---|---|---|---|---|---|
| 1777925390 | 19.44° C | 22% | 1011.5 hPa | 0 mm | - | 1000 W/m² | - |
| 1777925087 | 18.89° C | 22% | 1011.4 hPa | 0 mm | - | 1022 W/m² | - |
| 1777924783 | 18.89° C | 22% | 1011.5 hPa | 0 mm | - | 1067 W/m² | - |
| 1777924479 | 18.33° C | 23% | 1011.7 hPa | 0 mm | - | 1025 W/m² | - |
| 1777924176 | 17.78° C | 22% | 1011.8 hPa | 0 mm | - | 343 W/m² | - |
| 1777923872 | 17.78° C | 21% | 1011.9 hPa | 0 mm | - | 234 W/m² | - |
| 1777923568 | 18.33° C | 21% | 1011.9 hPa | 0 mm | - | 175 W/m² | - |
| 1777923265 | 18.33° C | 21% | 1011.8 hPa | 0 mm | - | 279 W/m² | - |
| 1777922964 | 18.33° C | 21% | 1011.9 hPa | 0 mm | - | 302 W/m² | - |
| 1777922661 | 18.33° C | 20% | 1011.7 hPa | 0 mm | - | 432 W/m² | - |
| 1777922360 | 18.33° C | 19% | 1011.8 hPa | 0 mm | - | 370 W/m² | - |
| 1777922058 | 18.33° C | 18% | 1011.4 hPa | 0 mm | - | 343 W/m² | - |
| 1777921753 | 18.33° C | 18% | 1011.8 hPa | 0 mm | - | 345 W/m² | - |
| 1777921449 | 18.33° C | 18% | 1011.7 hPa | 0 mm | - | 363 W/m² | - |
| 1777921145 | 17.78° C | 19% | 1011.8 hPa | 0 mm | - | 815 W/m² | - |
| 1777908842 | 15° C | 31% | 1014 hPa | 0 mm | - | 473 W/m² | - |
| 1777908538 | 15° C | 31% | 1014 hPa | 0 mm | - | 473 W/m² | - |
| 1777908235 | 15° C | 31% | 1014.1 hPa | 0 mm | - | 436 W/m² | - |
| 1777907932 | 14.44° C | 32% | 1014 hPa | 0 mm | - | 474 W/m² | - |
| 1777907627 | 14.44° C | 32% | 1014.1 hPa | 0 mm | - | 302 W/m² | - |
| 1777907323 | 13.89° C | 33% | 1014.3 hPa | 0 mm | - | 486 W/m² | - |
| 1777907019 | 13.89° C | 33% | 1014.4 hPa | 0 mm | - | 412 W/m² | - |
| 1777906717 | 13.89° C | 33% | 1014.6 hPa | 0 mm | - | 282 W/m² | - |
| 1777906413 | 13.33° C | 32% | 1014.4 hPa | 0 mm | - | 320 W/m² | - |
| 1777906110 | 13.89° C | 32% | 1014.4 hPa | 0 mm | - | 375 W/m² | - |
* Rain latest hour (hover to see other rain measurements)
** Current wind speed in m/s (hover to see current wind gust speed)